Terminal Aerodrome Forecast
Issued by NWS

Home | Current Version | Previous Version | Text Only | Print | Product List | Glossary On
Versions: 1 2 3 4 5 6 7 8 9 10 11 12 13
000
FTUS42 TJSJ 311739
TAFJMZ
TAF
TJMZ 311739Z 3118/0118 29010KT P6SM VCTS SCT025CB BKN040
      TEMPO 3118/3122 VRB12G20KT 3SM TSRA BKN025CB BKN050
     FM312330 07005KT P6SM FEW025 SCT040 SCT120
     FM010300 00000KT P6SM SKC
     FM011450 08010KT P6SM FEW030
      AMD NOT SKED 3123/0111=

USA.gov is the U.S. government's official web portal to all federal, state and local government web resources and services.